Jaru, Brazil
Current Conditions -  °F | °C
As of 12:00 AM on Friday 28 Nov 2014 (Local Time) from SBPV Reporting Station
Light Rain Light Rain  
Wind Chill: 72°   Ceiling: Unl
Heat Index: 72°   Visibility: 6mi
Dew Point: 70°   Wind: 2mph
Humidity: 94%   Direction: 340°NNW
Pressure: 29.85"   Gusts: NA
Location:  10.43°S, 62.45°W
Report Text: SBPV 280400Z 34002KT 9999 -RA SCT005 SCT015 22/21 Q1011
Loading
Personal Weather Stations






























Interactive Weather Map New forecast layout! Learn more

10-Day Weather Forecast

Advertisements
Track Severe Weather on mobile